Time;durP1;ratioP1;P1;durP2;ratioP2;P2;SDS_P1;SDS_P2;PMS_P1;PMS_P2;Temp;Humidity;BMP_temperature;BMP_pressure;BME280_temperature;BME280_humidity;BME280_pressure;Samples;Min_cycle;Max_cycle;Signal;HPM_P1;HPM_P2
2023/04/29 00:01:37;;;;;;;21.20;14.50;;;12.80;99.90;;;;;;5037341;28;20507;-82
2023/04/29 00:04:04;;;;;;;20.10;13.70;;;12.90;99.90;;;;;;5037533;28;20547;-81
2023/04/29 00:06:31;;;;;;;22.67;15.37;;;12.80;99.90;;;;;;5038286;28;21032;-82
2023/04/29 00:08:58;;;;;;;25.30;15.80;;;12.90;99.90;;;;;;5037463;28;20523;-83
2023/04/29 00:11:25;;;;;;;22.47;15.03;;;12.90;99.90;;;;;;5037141;28;20551;-81
2023/04/29 00:13:53;;;;;;;28.30;16.90;;;12.90;99.90;;;;;;5037742;28;20624;-82
2023/04/29 00:16:20;;;;;;;28.70;17.40;;;12.90;99.90;;;;;;5037822;28;20544;-81
2023/04/29 00:18:46;;;;;;;23.97;16.23;;;12.90;99.90;;;;;;5038348;28;20490;-81
2023/04/29 00:21:13;;;;;;;29.80;18.80;;;12.80;99.90;;;;;;5037381;28;20551;-81
2023/04/29 00:23:40;;;;;;;24.17;16.00;;;12.70;99.90;;;;;;5037786;28;20477;-81
2023/04/29 00:26:07;;;;;;;30.70;18.70;;;12.70;99.90;;;;;;5039240;28;20462;-82
2023/04/29 00:28:34;;;;;;;28.63;19.63;;;12.70;99.90;;;;;;5036336;28;20575;-81
2023/04/29 00:31:02;;;;;;;26.20;17.30;;;12.60;99.90;;;;;;5035890;28;20540;-82
2023/04/29 00:33:29;;;;;;;30.07;19.80;;;12.60;99.90;;;;;;5037596;28;21044;-82
2023/04/29 00:35:56;;;;;;;28.43;18.73;;;12.50;99.90;;;;;;5037059;28;20550;-81
2023/04/29 00:38:23;;;;;;;27.40;18.77;;;12.50;99.90;;;;;;5037786;28;20459;-82
2023/04/29 00:40:50;;;;;;;27.57;18.70;;;12.60;99.90;;;;;;5036918;28;20581;-81
2023/04/29 00:43:16;;;;;;;24.67;17.90;;;12.60;99.90;;;;;;5036907;28;20450;-82
2023/04/29 00:45:44;;;;;;;28.33;17.63;;;12.60;99.90;;;;;;5036733;28;20548;-82
2023/04/29 00:48:14;;;;;;;25.90;16.27;;;12.70;99.90;;;;;;5037414;28;20503;-81
2023/04/29 00:50:40;;;;;;;29.90;18.43;;;12.70;99.90;;;;;;5036996;28;20525;-83
2023/04/29 00:53:08;;;;;;;32.07;18.60;;;12.60;99.90;;;;;;5041088;28;20483;-82
2023/04/29 00:55:36;;;;;;;32.00;19.50;;;12.50;99.90;;;;;;5041273;28;20479;-83
2023/04/29 00:58:03;;;;;;;34.07;21.00;;;12.50;99.90;;;;;;5039761;28;20449;-82
2023/04/29 01:00:30;;;;;;;34.67;21.70;;;12.50;99.90;;;;;;5037893;28;20543;-81
2023/04/29 01:02:58;;;;;;;35.17;21.13;;;12.50;99.90;;;;;;5040828;28;20446;-82
2023/04/29 01:05:26;;;;;;;34.07;21.90;;;12.50;99.90;;;;;;5041114;28;20502;-81
2023/04/29 01:08:09;;;;;;;37.57;21.60;;;12.40;99.90;;;;;;5041053;28;20451;-82
2023/04/29 01:10:41;;;;;;;41.63;24.63;;;12.40;99.90;;;;;;5040335;28;20465;-80
2023/04/29 01:13:17;;;;;;;41.50;24.13;;;12.30;99.90;;;;;;5040966;28;20456;-82
2023/04/29 01:15:49;;;;;;;42.50;26.03;;;12.30;99.90;;;;;;5039910;28;20470;-81
2023/04/29 01:18:23;;;;;;;50.37;26.83;;;12.30;99.90;;;;;;5040929;28;20951;-82
2023/04/29 01:20:51;;;;;;;48.90;26.03;;;12.30;99.90;;;;;;5039465;28;20464;-81
2023/04/29 01:23:18;;;;;;;48.00;25.30;;;12.40;99.90;;;;;;5040260;28;20475;-82
2023/04/29 01:25:47;;;;;;;57.03;28.60;;;12.40;99.90;;;;;;5040036;28;20467;-81
2023/04/29 01:28:27;;;;;;;44.33;24.03;;;12.40;99.90;;;;;;5039551;28;20475;-82
2023/04/29 01:31:00;;;;;;;46.23;29.47;;;12.40;99.90;;;;;;5039210;28;20553;-82
2023/04/29 01:33:36;;;;;;;62.80;32.77;;;12.30;99.90;;;;;;5038930;28;20995;-84
2023/04/29 01:36:15;;;;;;;53.90;29.00;;;12.20;99.90;;;;;;5040208;28;20458;-81
2023/04/29 01:38:48;;;;;;;54.10;29.20;;;12.10;99.90;;;;;;5029631;28;20531;-82
2023/04/29 01:41:23;;;;;;;52.50;29.53;;;12.10;99.90;;;;;;5039675;28;20666;-81
2023/04/29 01:43:51;;;;;;;57.67;30.10;;;12.10;99.90;;;;;;5039629;28;20977;-80
2023/04/29 01:46:19;;;;;;;56.67;28.83;;;12.00;99.90;;;;;;5038986;28;20451;-81
2023/04/29 01:48:46;;;;;;;52.70;32.30;;;11.90;99.90;;;;;;5039609;28;21050;-80
2023/04/29 01:51:13;;;;;;;57.37;32.43;;;11.90;99.90;;;;;;5038046;28;20505;-80
2023/04/29 01:53:40;;;;;;;61.00;32.10;;;11.90;99.90;;;;;;5038759;28;20483;-81
2023/04/29 01:56:07;;;;;;;59.70;30.70;;;11.80;99.90;;;;;;5037732;28;20455;-81
2023/04/29 01:58:35;;;;;;;61.20;30.67;;;11.80;99.90;;;;;;5038214;28;20466;-81
2023/04/29 02:01:02;;;;;;;55.63;29.73;;;11.70;99.90;;;;;;5038381;28;20619;-80
2023/04/29 02:03:29;;;;;;;85.63;38.93;;;11.40;99.90;;;;;;5041266;28;20458;-79
2023/04/29 02:05:56;;;;;;;68.53;32.83;;;11.60;99.90;;;;;;5040203;28;20497;-79
2023/04/29 02:08:23;;;;;;;61.40;30.30;;;11.60;99.90;;;;;;5039740;28;20458;-80
2023/04/29 02:10:54;;;;;;;59.23;30.40;;;11.50;99.90;;;;;;5039311;28;20546;-79
2023/04/29 02:13:21;;;;;;;74.93;32.40;;;11.50;99.90;;;;;;5038549;28;20960;-79
2023/04/29 02:15:49;;;;;;;65.23;28.50;;;11.30;99.90;;;;;;5039336;28;20456;-81
2023/04/29 02:18:16;;;;;;;58.27;29.23;;;11.20;99.90;;;;;;5038834;28;20541;-81
2023/04/29 02:20:43;;;;;;;60.10;29.50;;;11.20;99.90;;;;;;5039054;28;20461;-81
2023/04/29 02:23:10;;;;;;;57.23;29.80;;;11.20;99.90;;;;;;5040660;28;20453;-80
2023/04/29 02:25:37;;;;;;;51.70;27.53;;;11.30;99.90;;;;;;5039806;28;20541;-79
2023/04/29 02:28:04;;;;;;;60.03;30.07;;;11.20;99.90;;;;;;5040496;28;20454;-79
2023/04/29 02:30:31;;;;;;;52.70;27.07;;;11.30;99.90;;;;;;5038646;28;21011;-78
2023/04/29 02:32:59;;;;;;;52.87;30.50;;;11.30;99.90;;;;;;5038923;28;20460;-81
2023/04/29 02:35:26;;;;;;;53.70;27.70;;;11.30;99.90;;;;;;5038657;28;20473;-80
2023/04/29 02:37:52;;;;;;;48.47;25.77;;;11.30;99.90;;;;;;5039973;28;20842;-79
2023/04/29 02:40:19;;;;;;;51.97;28.60;;;11.30;99.90;;;;;;5038981;28;20455;-79
2023/04/29 02:42:46;;;;;;;48.80;25.63;;;11.40;99.90;;;;;;5037928;28;20451;-80
2023/04/29 02:45:13;;;;;;;54.80;30.13;;;11.40;99.90;;;;;;5039454;28;20475;-81
2023/04/29 02:47:40;;;;;;;57.10;26.67;;;11.40;99.90;;;;;;5040641;28;20456;-80
2023/04/29 02:50:09;;;;;;;55.63;26.97;;;11.30;99.90;;;;;;5038360;28;20574;-80
2023/04/29 02:52:35;;;;;;;40.57;23.07;;;11.30;99.90;;;;;;5038343;28;20448;-80
2023/04/29 02:55:02;;;;;;;40.40;22.47;;;11.40;99.90;;;;;;5038384;28;21079;-80
2023/04/29 02:57:30;;;;;;;41.83;24.53;;;11.40;99.90;;;;;;5040745;28;20477;-80
2023/04/29 02:59:57;;;;;;;44.00;24.57;;;11.40;99.90;;;;;;5041901;28;20457;-81
2023/04/29 03:02:24;;;;;;;41.40;23.37;;;11.50;99.90;;;;;;5042204;28;20446;-80
2023/04/29 03:04:52;;;;;;;49.83;26.23;;;11.30;99.90;;;;;;5054600;22;20507;-84
2023/04/29 03:07:20;;;;;;;37.80;20.70;;;11.30;99.90;;;;;;5045178;28;20460;-84
2023/04/29 03:09:47;;;;;;;37.97;21.50;;;11.20;99.90;;;;;;5044926;28;20479;-84
2023/04/29 03:12:14;;;;;;;38.73;20.90;;;11.30;99.90;;;;;;5045099;28;20523;-85
2023/04/29 03:14:42;;;;;;;33.63;20.73;;;11.20;99.90;;;;;;5037578;28;20477;-83
2023/04/29 03:17:09;;;;;;;40.53;21.53;;;11.20;99.90;;;;;;5022377;28;20552;-83
2023/04/29 03:19:36;;;;;;;34.97;18.77;;;11.30;99.90;;;;;;5021949;28;20542;-83
2023/04/29 03:22:03;;;;;;;33.27;18.63;;;11.20;99.90;;;;;;5022867;28;20456;-83
2023/04/29 03:24:31;;;;;;;34.27;19.20;;;11.30;99.90;;;;;;5022495;28;20926;-84
2023/04/29 03:26:58;;;;;;;30.47;18.30;;;11.10;99.90;;;;;;5022656;28;20542;-83
2023/04/29 03:29:26;;;;;;;36.23;19.17;;;11.10;99.90;;;;;;5024413;28;20488;-83
2023/04/29 03:31:53;;;;;;;29.40;18.17;;;11.20;99.90;;;;;;5022325;28;20554;-83
2023/04/29 03:34:20;;;;;;;27.10;16.93;;;11.10;99.90;;;;;;5021821;28;20470;-84
2023/04/29 03:36:47;;;;;;;31.20;17.40;;;11.20;99.90;;;;;;5022136;28;20535;-84
2023/04/29 03:39:13;;;;;;;35.77;18.40;;;11.10;99.90;;;;;;5014453;28;20544;-83
2023/04/29 03:41:41;;;;;;;30.40;17.33;;;11.10;99.90;;;;;;5024852;28;20522;-83
2023/04/29 03:44:08;;;;;;;30.27;17.40;;;10.40;99.90;;;;;;5025901;28;20542;-84
2023/04/29 03:46:35;;;;;;;29.57;16.70;;;11.00;99.90;;;;;;5025383;28;21067;-84
2023/04/29 03:49:02;;;;;;;31.53;18.60;;;11.10;99.90;;;;;;5025909;28;20528;-84
2023/04/29 03:51:29;;;;;;;29.53;17.30;;;11.10;99.90;;;;;;5024463;28;21127;-83
2023/04/29 03:53:56;;;;;;;27.40;17.10;;;11.10;99.90;;;;;;5025607;28;20486;-84
2023/04/29 03:56:24;;;;;;;32.67;18.20;;;11.00;99.90;;;;;;5025950;28;20443;-85
2023/04/29 03:58:52;;;;;;;28.40;18.03;;;11.00;99.90;;;;;;5023145;28;20465;-82
2023/04/29 04:01:19;;;;;;;27.70;16.17;;;11.00;99.90;;;;;;5022251;28;21017;-84
2023/04/29 04:03:46;;;;;;;27.70;16.00;;;10.90;99.90;;;;;;5022608;28;20600;-85
2023/04/29 04:06:13;;;;;;;28.77;15.53;;;10.90;99.90;;;;;;5021316;28;20489;-83
2023/04/29 04:08:40;;;;;;;30.70;16.30;;;11.60;99.90;;;;;;5023303;28;20525;-83
2023/04/29 04:11:08;;;;;;;27.70;17.30;;;10.90;99.90;;;;;;5025629;28;20478;-83
2023/04/29 04:13:35;;;;;;;30.90;18.40;;;10.90;99.90;;;;;;5026404;28;20510;-84
2023/04/29 04:16:03;;;;;;;25.50;16.30;;;11.00;99.90;;;;;;5026740;28;20488;-82
2023/04/29 04:18:30;;;;;;;30.17;17.30;;;10.90;99.90;;;;;;5026400;28;21074;-84
2023/04/29 04:20:57;;;;;;;29.77;18.63;;;11.20;99.90;;;;;;5025677;28;20496;-84
2023/04/29 04:23:24;;;;;;;28.47;17.03;;;10.90;99.90;;;;;;5023547;28;20455;-83
2023/04/29 04:25:52;;;;;;;29.67;17.17;;;11.00;99.90;;;;;;5023499;28;20518;-84
2023/04/29 04:28:19;;;;;;;26.83;16.73;;;10.90;99.90;;;;;;5022608;28;20463;-85
2023/04/29 04:30:46;;;;;;;29.83;18.37;;;11.00;99.90;;;;;;5022479;28;20521;-84
2023/04/29 04:33:15;;;;;;;25.00;16.17;;;10.90;99.90;;;;;;5023423;28;20434;-84
2023/04/29 04:35:42;;;;;;;26.30;15.50;;;10.90;99.90;;;;;;5023703;28;20469;-82
2023/04/29 04:38:10;;;;;;;27.50;16.90;;;11.00;99.90;;;;;;5026969;28;20466;-83
2023/04/29 04:40:37;;;;;;;29.47;18.23;;;11.00;99.90;;;;;;5026609;28;20461;-82
2023/04/29 04:43:03;;;;;;;26.80;17.27;;;11.00;99.90;;;;;;5026911;28;20465;-82
2023/04/29 04:45:30;;;;;;;27.63;17.33;;;11.00;99.90;;;;;;5027147;28;20557;-83
2023/04/29 04:47:57;;;;;;;29.00;17.03;;;11.00;99.90;;;;;;5027503;28;20991;-85
2023/04/29 04:50:27;;;;;;;26.47;17.97;;;11.90;99.90;;;;;;5026220;28;20569;-83
2023/04/29 04:52:54;;;;;;;24.97;15.63;;;11.50;99.90;;;;;;5027811;28;20903;-84
2023/04/29 04:55:21;;;;;;;31.10;17.50;;;11.10;99.90;;;;;;5028124;28;20497;-82
2023/04/29 04:57:48;;;;;;;26.83;17.13;;;11.10;99.90;;;;;;5029443;28;20656;-82
2023/04/29 05:00:15;;;;;;;25.30;16.73;;;11.10;99.90;;;;;;5028533;28;20442;-83
2023/04/29 05:02:42;;;;;;;24.40;16.17;;;11.10;99.90;;;;;;5029454;28;20445;-83
2023/04/29 05:05:09;;;;;;;28.47;16.70;;;11.20;99.90;;;;;;5028839;28;20490;-83
2023/04/29 05:07:37;;;;;;;29.40;17.90;;;11.20;99.90;;;;;;5029185;28;20486;-82
2023/04/29 05:10:05;;;;;;;28.03;18.63;;;11.20;99.90;;;;;;5027189;28;20542;-83
2023/04/29 05:12:34;;;;;;;26.77;16.80;;;11.10;99.90;;;;;;5027508;28;20455;-84
2023/04/29 05:15:01;;;;;;;27.03;17.03;;;11.20;99.90;;;;;;5025750;28;21042;-84
2023/04/29 05:17:27;;;;;;;26.37;17.83;;;11.20;99.90;;;;;;5027762;28;20502;-81
2023/04/29 05:19:54;;;;;;;27.70;17.57;;;11.20;99.90;;;;;;5028717;28;20473;-81
2023/04/29 05:22:21;;;;;;;38.57;20.40;;;11.20;99.90;;;;;;5029251;28;20469;-83
2023/04/29 05:24:51;;;;;;;24.90;17.00;;;11.30;99.90;;;;;;5029580;28;20525;-82
2023/04/29 05:27:18;;;;;;;24.87;19.10;;;11.20;99.90;;;;;;5030143;28;20524;-83
2023/04/29 05:29:46;;;;;;;28.60;18.67;;;11.20;99.90;;;;;;5029373;28;20481;-82
2023/04/29 05:32:12;;;;;;;30.17;19.03;;;11.20;99.90;;;;;;5029553;28;20469;-83
2023/04/29 05:34:40;;;;;;;25.23;18.27;;;11.40;99.90;;;;;;5028999;28;20548;-84
2023/04/29 05:37:06;;;;;;;22.83;16.87;;;11.20;99.90;;;;;;5028554;28;20916;-82
2023/04/29 05:39:33;;;;;;;27.97;18.73;;;11.30;99.90;;;;;;5028648;28;20548;-82
2023/04/29 05:42:02;;;;;;;26.63;16.63;;;11.40;99.90;;;;;;5028242;28;20493;-83
2023/04/29 05:44:29;;;;;;;26.33;17.67;;;11.40;99.90;;;;;;5027749;28;20479;-83
2023/04/29 05:46:55;;;;;;;21.10;16.17;;;11.50;99.90;;;;;;5027490;28;20463;-83
2023/04/29 05:49:22;;;;;;;25.50;17.70;;;11.50;99.90;;;;;;5027990;28;20454;-84
2023/04/29 05:51:49;;;;;;;25.37;16.80;;;11.50;99.90;;;;;;5022176;28;20495;-84
2023/04/29 05:54:16;;;;;;;26.93;17.53;;;11.60;99.90;;;;;;5019231;28;20484;-85
2023/04/29 05:56:43;;;;;;;26.53;18.03;;;11.60;99.90;;;;;;5018832;28;20484;-85
2023/04/29 05:59:11;;;;;;;31.70;17.63;;;11.60;99.90;;;;;;5021135;28;20461;-83
2023/04/29 06:01:38;;;;;;;23.00;16.17;;;11.60;99.90;;;;;;5023521;28;20455;-83
2023/04/29 06:04:06;;;;;;;27.80;18.40;;;11.50;99.90;;;;;;5022330;28;20458;-84
2023/04/29 06:06:33;;;;;;;23.27;17.30;;;11.60;99.90;;;;;;5022360;28;20461;-84
2023/04/29 06:09:01;;;;;;;27.13;18.80;;;11.60;99.90;;;;;;5025209;28;20470;-84
2023/04/29 06:11:28;;;;;;;24.67;18.27;;;11.60;99.90;;;;;;5027168;28;20475;-83
2023/04/29 06:13:56;;;;;;;29.23;18.43;;;11.60;99.90;;;;;;5026197;28;20464;-83
2023/04/29 06:16:27;;;;;;;27.83;19.43;;;11.40;99.90;;;;;;5026273;28;20472;-83
2023/04/29 06:18:56;;;;;;;22.77;16.10;;;11.80;99.90;;;;;;5027097;28;20519;-83
2023/04/29 06:21:28;;;;;;;22.40;16.47;;;12.30;99.90;;;;;;5027061;28;20466;-83
2023/04/29 06:24:07;;;;;;;26.50;17.63;;;11.80;99.90;;;;;;5025711;28;20486;-83
2023/04/29 06:26:35;;;;;;;25.67;19.07;;;12.50;99.90;;;;;;5025876;28;20455;-84
2023/04/29 06:29:15;;;;;;;23.27;17.30;;;11.70;99.90;;;;;;5026217;28;20458;-83
2023/04/29 06:31:49;;;;;;;25.73;18.17;;;11.90;99.90;;;;;;5007581;28;20559;-84
2023/04/29 06:34:18;;;;;;;24.63;16.33;;;11.90;99.90;;;;;;5023408;28;20528;-81
2023/04/29 06:36:46;;;;;;;25.13;18.37;;;12.30;99.90;;;;;;5025877;28;20458;-82
2023/04/29 06:39:17;;;;;;;23.33;17.53;;;12.00;99.90;;;;;;5025514;28;20466;-84
2023/04/29 06:41:47;;;;;;;24.20;16.47;;;12.10;99.90;;;;;;5005357;28;20978;-83
2023/04/29 06:44:18;;;;;;;23.80;16.30;;;11.90;99.90;;;;;;5016923;28;20463;-83
2023/04/29 06:46:50;;;;;;;23.43;16.33;;;12.40;99.90;;;;;;5023908;28;20471;-84
2023/04/29 06:49:20;;;;;;;25.20;17.30;;;12.70;99.90;;;;;;5023950;28;20451;-83
2023/04/29 06:51:52;;;;;;;23.03;17.27;;;12.00;99.90;;;;;;5023319;28;20485;-82
2023/04/29 06:54:20;;;;;;;21.30;17.10;;;12.00;99.90;;;;;;5022759;28;20483;-83
2023/04/29 06:57:02;;;;;;;24.87;15.63;;;11.90;99.90;;;;;;5022776;28;20457;-83
2023/04/29 06:59:29;;;;;;;23.80;17.20;;;11.10;99.90;;;;;;5022438;28;20455;-83
2023/04/29 07:01:59;;;;;;;25.70;18.00;;;12.70;99.90;;;;;;5024191;28;20536;-83
2023/04/29 07:04:32;;;;;;;29.67;19.50;;;11.70;99.90;;;;;;5022452;28;21030;-82
2023/04/29 07:07:03;;;;;;;24.13;17.23;;;11.60;99.90;;;;;;5023967;28;20505;-82
2023/04/29 07:09:30;;;;;;;23.03;17.23;;;11.60;99.90;;;;;;5025759;28;20463;-83
2023/04/29 07:11:57;;;;;;;29.23;19.00;;;11.50;99.90;;;;;;5026766;28;20482;-83
2023/04/29 07:14:24;;;;;;;26.50;18.37;;;11.70;99.90;;;;;;5025622;28;20535;-83
2023/04/29 07:16:54;;;;;;;25.17;19.67;;;11.40;99.90;;;;;;5025427;28;20478;-82
2023/04/29 07:19:22;;;;;;;29.20;19.17;;;12.00;99.90;;;;;;5026517;28;20445;-83
2023/04/29 07:21:49;;;;;;;30.10;19.80;;;11.40;99.90;;;;;;5024604;28;20483;-83
2023/04/29 07:24:16;;;;;;;30.87;21.47;;;11.40;99.90;;;;;;5024620;28;20491;-83
2023/04/29 07:26:44;;;;;;;29.37;21.37;;;11.30;99.90;;;;;;5025681;28;20526;-82
2023/04/29 07:29:11;;;;;;;34.27;23.20;;;12.60;99.90;;;;;;5026590;28;20454;-83
2023/04/29 07:31:38;;;;;;;26.80;20.47;;;11.30;99.90;;;;;;5025304;28;20481;-82
2023/04/29 07:34:05;;;;;;;29.10;20.57;;;11.30;99.90;;;;;;5031374;28;20460;-83
2023/04/29 07:36:34;;;;;;;28.40;19.17;;;11.40;99.90;;;;;;5026925;28;20461;-82
2023/04/29 07:39:01;;;;;;;24.37;18.70;;;11.50;99.90;;;;;;5023350;28;20456;-78
2023/04/29 07:41:28;;;;;;;28.63;17.30;;;11.50;99.90;;;;;;5025196;28;20517;-83
2023/04/29 07:43:55;;;;;;;30.60;20.47;;;12.20;99.90;;;;;;5005197;28;20507;-82
2023/04/29 07:46:22;;;;;;;24.60;19.50;;;11.60;99.90;;;;;;5012429;28;20484;-81
2023/04/29 07:48:49;;;;;;;29.43;19.83;;;11.60;99.90;;;;;;5024690;28;20952;-81
2023/04/29 07:51:16;;;;;;;25.60;18.30;;;11.50;99.90;;;;;;5024845;28;20492;-82
2023/04/29 07:53:44;;;;;;;31.63;21.13;;;11.50;99.90;;;;;;5022771;28;20484;-81
2023/04/29 07:56:11;;;;;;;27.83;20.73;;;11.60;99.90;;;;;;5027491;28;20566;-83
2023/04/29 07:58:38;;;;;;;33.83;21.73;;;11.50;99.90;;;;;;5027768;28;20455;-81
2023/04/29 08:01:07;;;;;;;37.43;23.40;;;11.50;99.90;;;;;;5008221;28;20459;-82
2023/04/29 08:03:38;;;;;;;33.70;22.10;;;11.30;99.90;;;;;;5008697;28;20455;-82
2023/04/29 08:06:06;;;;;;;38.77;23.23;;;11.30;99.90;;;;;;5028235;28;20547;-82
2023/04/29 08:08:33;;;;;;;39.90;21.90;;;11.50;99.90;;;;;;5028014;28;20514;-82
2023/04/29 08:11:01;;;;;;;40.93;25.23;;;11.30;99.90;;;;;;5030500;28;20484;-81
2023/04/29 08:13:31;;;;;;;39.80;25.23;;;12.50;99.90;;;;;;5033863;28;20465;-83
2023/04/29 08:16:01;;;;;;;40.00;24.20;;;11.50;99.90;;;;;;5033296;28;20482;-81
2023/04/29 08:18:28;;;;;;;39.93;21.07;;;11.50;99.90;;;;;;5033509;28;20451;-83
2023/04/29 08:20:58;;;;;;;36.97;23.50;;;11.30;99.90;;;;;;5031017;28;20457;-82
2023/04/29 08:23:25;;;;;;;37.07;23.60;;;12.90;99.90;;;;;;5031066;28;20458;-82
2023/04/29 08:25:54;;;;;;;33.47;21.60;;;12.00;99.90;;;;;;5031504;28;20479;-82
2023/04/29 08:28:24;;;;;;;35.87;22.90;;;10.90;99.90;;;;;;5031180;28;20482;-82
2023/04/29 08:30:51;;;;;;;36.70;23.60;;;11.30;99.90;;;;;;5032136;28;20474;-83
2023/04/29 08:33:18;;;;;;;33.87;22.43;;;11.40;99.90;;;;;;5029676;28;20436;-83
2023/04/29 08:35:47;;;;;;;34.90;23.93;;;11.40;99.90;;;;;;5029134;28;20473;-84
2023/04/29 08:38:14;;;;;;;40.03;25.97;;;12.70;99.90;;;;;;5030441;28;21069;-82
2023/04/29 08:40:44;;;;;;;40.53;25.47;;;11.80;99.90;;;;;;5028716;28;20435;-81
2023/04/29 08:43:12;;;;;;;39.13;25.50;;;12.10;99.90;;;;;;5029926;28;20544;-81
2023/04/29 08:45:44;;;;;;;39.80;24.07;;;11.60;99.90;;;;;;5030571;28;20474;-79
2023/04/29 08:48:15;;;;;;;38.93;24.13;;;11.60;99.90;;;;;;5028838;28;20466;-81
2023/04/29 08:51:25;;;;;;;46.57;28.37;;;11.50;99.90;;;;;;5025556;28;20489;-83
2023/04/29 08:57:07;;;;;;;51.90;29.93;;;11.40;99.90;;;;;;5069783;23;20485;-81
2023/04/29 08:59:48;;;;;;;43.93;28.93;;;11.40;99.90;;;;;;5054188;28;20464;-83
2023/04/29 09:06:21;;;;;;;44.13;29.10;;;10.40;99.90;;;;;;5047809;28;20557;-84
2023/04/29 09:08:48;;;;;;;44.37;27.70;;;11.90;99.90;;;;;;5043754;28;20474;-82
2023/04/29 09:11:15;;;;;;;42.20;25.67;;;11.80;99.90;;;;;;5046751;28;20550;-83
2023/04/29 09:13:42;;;;;;;42.83;27.53;;;11.80;99.90;;;;;;5047403;28;20453;-82
2023/04/29 09:16:11;;;;;;;44.10;27.43;;;12.30;99.90;;;;;;5048211;28;20470;-82
2023/04/29 09:18:50;;;;;;;40.83;25.00;;;12.10;99.90;;;;;;5041008;28;20455;-81
2023/04/29 09:21:19;;;;;;;46.57;27.47;;;11.90;99.90;;;;;;5047059;28;20473;-82
2023/04/29 09:23:47;;;;;;;47.40;27.50;;;11.90;99.90;;;;;;5047820;28;20514;-81
2023/04/29 09:26:14;;;;;;;39.77;23.47;;;11.90;99.90;;;;;;5049983;28;20538;-80
2023/04/29 09:28:43;;;;;;;37.07;24.33;;;12.00;99.90;;;;;;5041403;28;20459;-81
2023/04/29 09:31:11;;;;;;;40.17;24.07;;;12.00;99.90;;;;;;5045129;28;20564;-81
2023/04/29 09:33:53;;;;;;;41.13;24.30;;;12.10;99.90;;;;;;5041099;28;21053;-83
2023/04/29 09:36:40;;;;;;;40.37;26.40;;;12.20;99.90;;;;;;5042776;28;20462;-82
2023/04/29 09:39:11;;;;;;;37.90;23.03;;;12.30;99.90;;;;;;5041591;28;20450;-81
2023/04/29 09:41:40;;;;;;;47.20;27.20;;;12.50;99.90;;;;;;5042074;28;20444;-82
2023/04/29 09:44:07;;;;;;;37.60;24.00;;;12.70;99.90;;;;;;5042949;28;20453;-83
2023/04/29 09:46:35;;;;;;;45.97;26.33;;;12.80;99.90;;;;;;5045841;28;20481;-84
2023/04/29 09:49:05;;;;;;;39.10;25.60;;;12.80;99.90;;;;;;5042803;28;20495;-82
2023/04/29 09:51:32;;;;;;;31.00;24.83;;;12.90;99.90;;;;;;5045481;28;20478;-82
2023/04/29 09:54:01;;;;;;;37.70;23.73;;;13.10;99.90;;;;;;5046298;28;20452;-84
2023/04/29 09:56:29;;;;;;;40.63;24.07;;;13.50;99.90;;;;;;5045498;28;20916;-84
2023/04/29 09:58:57;;;;;;;41.53;26.20;;;13.10;92.30;;;;;;5047629;28;20453;-82
2023/04/29 10:01:27;;;;;;;38.70;23.57;;;13.00;99.90;;;;;;5043381;28;20810;-83
2023/04/29 10:03:56;;;;;;;36.67;23.53;;;13.10;99.90;;;;;;5046811;28;21022;-84
2023/04/29 10:06:25;;;;;;;40.87;24.77;;;13.30;99.90;;;;;;5046159;28;20546;-84
2023/04/29 10:08:52;;;;;;;32.90;23.50;;;13.50;99.90;;;;;;5045869;28;20440;-84
2023/04/29 10:11:20;;;;;;;36.77;23.07;;;13.50;99.90;;;;;;5043973;28;20487;-83
2023/04/29 10:13:51;;;;;;;30.00;21.37;;;13.70;32.20;;;;;;5044826;28;20452;-82
2023/04/29 10:16:27;;;;;;;33.50;22.73;;;14.00;30.00;;;;;;5046037;28;20900;-83
2023/04/29 10:18:56;;;;;;;29.20;19.90;;;14.30;7.20;;;;;;5038274;28;21090;-83
2023/04/29 10:21:28;;;;;;;28.30;21.33;;;14.50;1.00;;;;;;5040920;28;20452;-84
2023/04/29 10:23:57;;;;;;;31.97;20.17;;;14.60;1.00;;;;;;5045128;28;20927;-84
2023/04/29 10:26:29;;;;;;;28.10;19.63;;;15.70;1.00;;;;;;5045617;28;20493;-83
2023/04/29 10:28:58;;;;;;;26.30;20.13;;;15.70;1.00;;;;;;5042856;28;20449;-84
2023/04/29 10:31:27;;;;;;;24.57;19.30;;;15.60;1.00;;;;;;5046435;28;21010;-83
2023/04/29 10:33:56;;;;;;;27.03;20.40;;;15.70;1.00;;;;;;5038448;28;20445;-82
2023/04/29 10:36:26;;;;;;;31.57;18.97;;;15.80;99.90;;;;;;5040922;28;20465;-83
2023/04/29 10:38:56;;;;;;;23.40;17.30;;;16.80;99.90;;;;;;5035207;28;21011;-83
2023/04/29 10:41:27;;;;;;;22.40;18.50;;;16.00;99.90;;;;;;5042216;28;20471;-83
2023/04/29 10:43:54;;;;;;;25.63;17.43;;;16.10;99.90;;;;;;5040920;28;20538;-82
2023/04/29 10:46:22;;;;;;;22.33;19.10;;;16.00;99.90;;;;;;5041672;28;20503;-83
2023/04/29 10:48:56;;;;;;;24.67;19.67;;;16.00;57.90;;;;;;5041188;28;20483;-82
2023/04/29 10:51:31;;;;;;;24.63;19.10;;;15.30;99.90;;;;;;5040521;28;20484;-83
2023/04/29 10:54:00;;;;;;;23.77;16.83;;;15.60;1.00;;;;;;5040566;28;20451;-83
2023/04/29 10:56:43;;;;;;;20.80;16.07;;;16.10;99.90;;;;;;5038647;28;20485;-83
2023/04/29 10:59:14;;;;;;;25.20;17.87;;;16.60;99.90;;;;;;5033165;28;20459;-83
2023/04/29 11:01:44;;;;;;;20.90;17.40;;;16.80;1.00;;;;;;5040288;28;20478;-82
2023/04/29 11:04:12;;;;;;;24.07;17.47;;;17.00;99.90;;;;;;5040908;28;20452;-82
2023/04/29 11:06:42;;;;;;;18.80;15.53;;;16.70;1.00;;;;;;5040379;28;20453;-82
2023/04/29 11:09:12;;;;;;;21.80;15.53;;;16.80;99.90;;;;;;5040157;28;20484;-81
2023/04/29 11:11:58;;;;;;;20.30;16.50;;;17.10;1.00;;;;;;5040770;28;20530;-82
2023/04/29 11:14:27;;;;;;;18.20;14.07;;;17.20;99.90;;;;;;5040599;28;20476;-82
2023/04/29 11:16:57;;;;;;;19.90;14.23;;;17.20;99.90;;;;;;5038942;28;20485;-84
2023/04/29 11:19:25;;;;;;;19.50;14.47;;;17.80;99.90;;;;;;5040477;28;20453;-81
2023/04/29 11:22:10;;;;;;;19.07;15.00;;;17.80;1.00;;;;;;5035034;28;20449;-83
2023/04/29 11:24:48;;;;;;;15.70;12.90;;;17.70;99.90;;;;;;5037760;28;20478;-81
2023/04/29 11:27:16;;;;;;;18.43;14.27;;;18.00;99.90;;;;;;5033345;28;20449;-84
2023/04/29 11:29:44;;;;;;;17.57;13.43;;;18.00;99.90;;;;;;5037069;28;20460;-82
2023/04/29 11:32:11;;;;;;;17.47;13.07;;;18.10;99.90;;;;;;5039350;28;20858;-82
2023/04/29 11:34:38;;;;;;;17.03;13.70;;;18.20;99.90;;;;;;5038409;28;20473;-83
2023/04/29 11:37:06;;;;;;;15.10;11.83;;;18.00;99.90;;;;;;5039603;28;20528;-82
2023/04/29 11:39:35;;;;;;;15.00;13.40;;;18.40;99.90;;;;;;5038481;28;20446;-82
2023/04/29 11:42:06;;;;;;;15.90;13.60;;;18.00;1.00;;;;;;5038230;28;20489;-80
2023/04/29 11:44:34;;;;;;;16.87;13.33;;;18.00;1.00;;;;;;5035043;28;20475;-80
2023/04/29 11:47:04;;;;;;;14.93;13.17;;;18.20;1.00;;;;;;5031930;28;20465;-82
2023/04/29 11:49:32;;;;;;;14.77;12.23;;;17.80;1.00;;;;;;5036685;28;20465;-82
2023/04/29 11:51:59;;;;;;;13.93;12.40;;;17.70;1.00;;;;;;5035590;28;20486;-81
2023/04/29 11:54:28;;;;;;;15.20;11.47;;;17.90;1.00;;;;;;5036338;28;20589;-82
2023/04/29 11:56:55;;;;;;;15.57;12.50;;;18.50;24.80;;;;;;5035586;28;20468;-81
2023/04/29 11:59:22;;;;;;;13.00;11.30;;;18.70;1.00;;;;;;5038328;28;20829;-83
2023/04/29 12:01:49;;;;;;;15.00;10.10;;;19.40;1.00;;;;;;5037280;28;21042;-81
2023/04/29 12:04:16;;;;;;;13.10;9.87;;;19.90;1.00;;;;;;5037265;28;20457;-83
2023/04/29 12:06:43;;;;;;;11.67;9.60;;;20.50;1.00;;;;;;5036903;28;20460;-81
2023/04/29 12:09:10;;;;;;;10.27;9.10;;;21.10;1.00;;;;;;5037134;28;20495;-84
2023/04/29 12:11:40;;;;;;;12.10;9.67;;;22.20;1.00;;;;;;5035887;28;20464;-80
2023/04/29 12:14:07;;;;;;;14.10;10.33;;;24.00;1.00;;;;;;5036391;28;21323;-82
2023/04/29 12:16:34;;;;;;;11.50;8.87;;;25.20;1.00;;;;;;5036350;28;20479;-82
2023/04/29 12:19:01;;;;;;;12.13;8.37;;;25.30;1.00;;;;;;5036815;28;20472;-81
2023/04/29 12:21:30;;;;;;;11.23;9.40;;;26.60;1.00;;;;;;5033555;28;20464;-81
2023/04/29 12:23:59;;;;;;;9.83;8.43;;;25.20;1.00;;;;;;5023952;28;20461;-82
2023/04/29 12:26:28;;;;;;;13.70;11.70;;;24.50;1.00;;;;;;5033162;28;20965;-82
2023/04/29 12:28:59;;;;;;;12.13;10.93;;;22.80;99.90;;;;;;5030777;28;20507;-83
2023/04/29 12:31:33;;;;;;;11.20;9.20;;;21.70;99.90;;;;;;5034630;28;20555;-81
2023/04/29 12:34:00;;;;;;;10.10;9.10;;;20.70;99.90;;;;;;5035183;28;20457;-82
2023/04/29 12:36:29;;;;;;;11.60;10.40;;;20.50;99.90;;;;;;5036662;28;20453;-83
2023/04/29 12:38:55;;;;;;;11.70;10.37;;;19.90;99.90;;;;;;5032992;28;20449;-81
2023/04/29 12:41:36;;;;;;;12.90;9.83;;;19.20;99.90;;;;;;5034717;28;20508;-82
2023/04/29 12:44:06;;;;;;;10.93;9.83;;;18.50;99.90;;;;;;5036454;28;20452;-81